»·PEaware :: SWA1 KLAX-KDEN

SWA1 :: KLAX-KDEN

FLIGHT INFORMATION

Flight Status: Arrived
Operator:
Southwest Airlines
More flights by this operator :: More flights under this callsign
Pilot: Maximilliano F. (23467)
Aircraft: BOEING 737-800
(B738)
More flights by this aircraft type
Origin: KLAX Los Angeles Intl
United States
Destination: KDEN Denver Intl
United States
More flights between these airports :: More routes between these airports
Route: ORCKA3 LAS J146 DVC WOLLF TELLR2
File this flight plan on PilotEdge
Remarks: RMK / SIMBRIEF
Altitude:
(Current/Filed)
37,000ft
Speed:
(Current/Filed)
459kts
Departed: 08-Nov-19 03:38 PM
Arrived: 08-Nov-19 05:32 PM
Distance/Time
Traveled:
748nm/1:54
Distance/Time
To Go:
Arrived

Flight Plot

Page will automatically refresh every two minutes.

Flight plan parsing failed; only flown route is shown


Map Options




Map Legend


Flown Route
Filed Route
Departure Airport
Arrival Airport
Navaid (VOR, NDB)
Fix

Horizontal Profiles

Position Reports

Time Latitude Longitude Heading Altitude Ground
Speed
08-Nov-19 15:09 33.946934 -118.400612 262 121ft 0kts
08-Nov-19 15:10 33.946934 -118.400612 262 121ft 0kts
08-Nov-19 15:11 33.946934 -118.400612 262 121ft 0kts
08-Nov-19 15:12 33.946934 -118.400612 262 121ft 0kts
08-Nov-19 15:13 33.946934 -118.400612 262 121ft 0kts
08-Nov-19 15:14 33.946934 -118.400612 262 121ft 0kts
08-Nov-19 15:15 33.946934 -118.400612 262 121ft 0kts
08-Nov-19 15:16 33.946934 -118.400612 262 121ft 0kts
08-Nov-19 15:17 33.946934 -118.400612 262 121ft 0kts
08-Nov-19 15:18 33.946934 -118.400612 262 121ft 0kts
08-Nov-19 15:19 33.946934 -118.400612 262 121ft 0kts
08-Nov-19 15:20 33.946934 -118.400612 262 121ft 0kts
08-Nov-19 15:21 33.946934 -118.400612 262 121ft 0kts
08-Nov-19 15:22 33.946934 -118.400612 262 121ft 0kts
08-Nov-19 15:23 33.946934 -118.400612 262 121ft 0kts
08-Nov-19 15:24 33.946934 -118.400612 262 121ft 0kts
08-Nov-19 15:25 33.946934 -118.400612 263 121ft 0kts
08-Nov-19 15:26 33.946919 -118.400214 308 121ft 2kts
08-Nov-19 15:27 33.946674 -118.400084 357 121ft 0kts
08-Nov-19 15:28 33.946675 -118.400084 357 121ft 0kts
08-Nov-19 15:29 33.946675 -118.400084 357 121ft 0kts
08-Nov-19 15:30 33.946675 -118.400084 357 121ft 0kts
08-Nov-19 15:31 33.946676 -118.400084 357 121ft 0kts
08-Nov-19 15:32 33.948389 -118.400295 299 120ft 3kts
08-Nov-19 15:33 33.949272 -118.399839 82 118ft 10kts
08-Nov-19 15:34 33.949554 -118.399196 36 117ft 0kts
08-Nov-19 15:35 33.949571 -118.399181 36 117ft 0kts
08-Nov-19 15:36 33.950313 -118.399306 311 117ft 7kts
08-Nov-19 15:37 33.948835 -118.415015 263 126ft 155kts
08-Nov-19 15:38 33.939476 -118.475782 253 2341ft 205kts
08-Nov-19 15:39 33.926386 -118.555454 263 4484ft 271kts
08-Nov-19 15:40 33.870234 -118.587513 137 7429ft 279kts
08-Nov-19 15:41 33.880328 -118.506439 50 10276ft 288kts
08-Nov-19 15:42 33.938543 -118.425123 55 12173ft 335kts
08-Nov-19 15:43 33.984079 -118.342648 56 14631ft 346kts
08-Nov-19 15:44 34.038709 -118.246258 56 17339ft 359kts
08-Nov-19 15:45 34.096369 -118.144453 56 19797ft 374kts
08-Nov-19 15:46 34.150969 -118.047654 57 21808ft 387kts
08-Nov-19 15:47 34.212772 -117.937870 56 23814ft 401kts
08-Nov-19 15:48 34.276426 -117.824483 57 25784ft 411kts
08-Nov-19 15:49 34.341000 -117.709085 57 27580ft 420kts
08-Nov-19 15:50 34.409683 -117.592859 55 29205ft 429kts
08-Nov-19 15:51 34.479962 -117.475059 55 30912ft 432kts
08-Nov-19 15:52 34.549697 -117.357747 56 32790ft 425kts
08-Nov-19 15:53 34.616545 -117.244879 56 34428ft 420kts
08-Nov-19 15:54 34.684664 -117.129535 56 35723ft 420kts
08-Nov-19 15:55 34.752591 -117.014147 56 36813ft 421kts
08-Nov-19 15:56 34.821733 -116.896304 55 37239ft 437kts
08-Nov-19 15:57 34.893491 -116.773631 55 37223ft 459kts
08-Nov-19 15:58 34.975929 -116.653881 48 37217ft 460kts
08-Nov-19 15:59 35.062436 -116.540121 48 37218ft 457kts
08-Nov-19 16:00 35.147213 -116.428078 48 37217ft 456kts
08-Nov-19 16:01 35.231457 -116.316371 49 37220ft 453kts
08-Nov-19 16:02 35.316337 -116.203437 49 37220ft 451kts
08-Nov-19 16:03 35.400989 -116.090449 49 37215ft 449kts
08-Nov-19 16:04 35.485181 -115.977700 49 37238ft 447kts
08-Nov-19 16:05 35.569009 -115.865060 49 37273ft 448kts
08-Nov-19 16:06 35.652448 -115.752078 50 37272ft 446kts
08-Nov-19 16:07 35.734649 -115.638471 50 37272ft 446kts
08-Nov-19 16:08 35.817500 -115.524285 50 37271ft 447kts
08-Nov-19 16:09 35.900761 -115.409106 50 37267ft 459kts
08-Nov-19 16:10 35.984904 -115.292334 50 37252ft 457kts
08-Nov-19 16:11 36.066823 -115.174029 58 37251ft 448kts
08-Nov-19 16:12 36.118477 -115.035069 70 37247ft 449kts
08-Nov-19 16:13 36.162726 -114.890827 70 37246ft 448kts
08-Nov-19 16:14 36.206861 -114.746644 70 37245ft 448kts
08-Nov-19 16:15 36.251002 -114.602315 70 37245ft 449kts
08-Nov-19 16:16 36.295149 -114.457271 70 37244ft 450kts
08-Nov-19 16:17 36.338548 -114.313957 70 37247ft 450kts
08-Nov-19 16:18 36.382407 -114.168357 70 37265ft 450kts
08-Nov-19 16:19 36.426006 -114.022915 70 37314ft 450kts
08-Nov-19 16:20 36.469478 -113.877146 70 37328ft 451kts
08-Nov-19 16:21 36.512777 -113.731201 70 37323ft 450kts
08-Nov-19 16:22 36.555818 -113.585357 70 37315ft 451kts
08-Nov-19 16:23 36.598860 -113.438763 70 37307ft 452kts
08-Nov-19 16:24 36.640968 -113.293134 71 37304ft 453kts
08-Nov-19 16:25 36.683345 -113.145925 71 37302ft 452kts
08-Nov-19 16:26 36.725903 -112.998425 71 37310ft 452kts
08-Nov-19 16:27 36.768288 -112.850717 71 37359ft 453kts
08-Nov-19 16:28 36.810693 -112.702143 71 37383ft 454kts
08-Nov-19 16:29 36.852862 -112.553574 70 37382ft 454kts
08-Nov-19 16:30 36.894709 -112.404728 71 37382ft 455kts
08-Nov-19 16:31 36.935970 -112.256425 71 37385ft 455kts
08-Nov-19 16:32 36.977762 -112.106943 71 37384ft 455kts
08-Nov-19 16:33 37.019237 -111.957710 71 37377ft 457kts
08-Nov-19 16:34 37.060900 -111.807006 71 37356ft 458kts
08-Nov-19 16:35 37.101982 -111.657519 71 37356ft 457kts
08-Nov-19 16:36 37.143260 -111.506476 71 37361ft 459kts
08-Nov-19 16:37 37.184253 -111.355636 71 37375ft 458kts
08-Nov-19 16:38 37.224805 -111.205258 72 37391ft 459kts
08-Nov-19 16:39 37.265161 -111.052631 71 37399ft 459kts
08-Nov-19 16:40 37.305865 -110.900490 71 37407ft 461kts
08-Nov-19 16:41 37.346322 -110.747980 71 37407ft 461kts
08-Nov-19 16:42 37.386522 -110.595224 71 37414ft 462kts
08-Nov-19 16:43 37.426916 -110.441379 71 37410ft 463kts
08-Nov-19 16:44 37.466607 -110.288709 71 37416ft 464kts
08-Nov-19 16:45 37.506593 -110.134581 71 37407ft 464kts
08-Nov-19 16:46 37.546501 -109.979304 71 37442ft 465kts
08-Nov-19 16:47 37.586219 -109.824185 71 37469ft 466kts
08-Nov-19 16:49 37.625668 -109.668809 71 37467ft 466kts
08-Nov-19 16:50 37.665082 -109.513017 71 37465ft 466kts
08-Nov-19 16:51 37.704185 -109.357228 71 37462ft 467kts
08-Nov-19 16:52 37.742821 -109.202466 72 37462ft 468kts
08-Nov-19 16:53 37.781561 -109.045663 72 37420ft 468kts
08-Nov-19 16:54 37.827533 -108.892349 57 37401ft 466kts
08-Nov-19 16:55 37.896108 -108.752996 57 37410ft 468kts
08-Nov-19 16:56 37.964350 -108.613077 56 37420ft 468kts
08-Nov-19 16:57 38.032670 -108.472418 56 37420ft 470kts
08-Nov-19 16:58 38.099785 -108.333657 57 37419ft 470kts
08-Nov-19 16:59 38.167109 -108.193861 57 37433ft 470kts
08-Nov-19 17:00 38.235175 -108.051909 57 37492ft 470kts
08-Nov-19 17:01 38.303013 -107.909803 56 37491ft 471kts
08-Nov-19 17:02 38.370699 -107.767402 56 37453ft 471kts
08-Nov-19 17:03 38.438342 -107.624463 56 37431ft 471kts
08-Nov-19 17:04 38.503728 -107.479139 57 37431ft 473kts
08-Nov-19 17:05 38.568647 -107.334470 57 37429ft 473kts
08-Nov-19 17:06 38.634236 -107.187665 57 37428ft 475kts
08-Nov-19 17:06 38.688526 -107.065629 57 37429ft 475kts
08-Nov-19 17:08 38.764536 -106.893977 57 37457ft 476kts
08-Nov-19 17:09 38.829594 -106.746312 56 37483ft 476kts
08-Nov-19 17:09 38.883153 -106.625532 55 37484ft 460kts
08-Nov-19 17:10 38.949085 -106.483632 55 37495ft 465kts
08-Nov-19 17:12 39.023494 -106.322120 55 35993ft 458kts
08-Nov-19 17:12 39.076097 -106.205757 55 32343ft 457kts
08-Nov-19 17:13 39.137254 -106.069317 55 29672ft 445kts
08-Nov-19 17:14 39.198012 -105.931621 55 27109ft 436kts
08-Nov-19 17:15 39.256752 -105.798179 54 24569ft 420kts
08-Nov-19 17:16 39.313012 -105.669824 55 22030ft 405kts
08-Nov-19 17:17 39.366425 -105.547333 54 20177ft 360kts
08-Nov-19 17:18 39.396664 -105.431070 78 18767ft 345kts
08-Nov-19 17:19 39.402708 -105.308910 82 17205ft 333kts
08-Nov-19 17:20 39.407983 -105.192869 82 15867ft 319kts
08-Nov-19 17:21 39.439976 -105.093550 48 14241ft 299kts
08-Nov-19 17:22 39.489973 -105.009233 48 12748ft 293kts
08-Nov-19 17:23 39.539172 -104.927959 48 10801ft 286kts
08-Nov-19 17:24 39.589242 -104.850734 47 8773ft 278kts
08-Nov-19 17:25 39.636808 -104.779995 47 8034ft 238kts
08-Nov-19 17:26 39.677706 -104.719211 47 7125ft 214kts
08-Nov-19 17:27 39.710544 -104.670399 47 7023ft 158kts
08-Nov-19 17:28 39.756327 -104.661544 358 6871ft 194kts
08-Nov-19 17:29 39.803564 -104.660873 358 5952ft 167kts
08-Nov-19 17:30 39.843572 -104.660387 0 5402ft 67kts
08-Nov-19 17:31 39.848696 -104.661265 328 5395ft 0kts
08-Nov-19 17:32 39.851568 -104.662414 0 5392ft 17kts
08-Nov-19 17:33 39.856521 -104.662353 0 5388ft 18kts
08-Nov-19 17:34 39.861012 -104.662730 288 5384ft 10kts
08-Nov-19 17:35 39.862253 -104.665750 0 5379ft 8kts

Navigation Log

Ident Type
Flight plan parsing failed, navigation log unavailable